Terminal Aerodrome Forecast
Issued by NWS Twin Cities, MN

Home | Current Version | Previous Version | Graphics & Text | Print | Product List | Glossary On
Versions: 1 2 3 4 5 6 7 8 9 10 11 12 13 14 15 16 17 18
000
FTUS43 KMPX 280900 AAA
TAFSTC
TAF AMD
KSTC 280905Z 2809/2906 VRB02KT 5SM BR SKC
      TEMPO 2810/2812 2SM BR
     FM281300 16004KT P6SM SKC
     FM281500 19006KT P6SM FEW050 SCT250
     FM290000 VRB04KT P6SM SCT050 BKN120=

USA.gov is the U.S. government's official web portal to all federal, state and local government web resources and services.